sensor_id;sensor_type;location;lat;lon;timestamp;temperature;humidity
3190;DHT22;1606;51.946;10.558;2022-07-23T00:00:33;21.80;99.90
3190;DHT22;1606;51.946;10.558;2022-07-23T00:03:05;21.80;99.90
3190;DHT22;1606;51.946;10.558;2022-07-23T00:05:33;21.70;99.90
3190;DHT22;1606;51.946;10.558;2022-07-23T00:08:03;21.60;99.90
3190;DHT22;1606;51.946;10.558;2022-07-23T00:10:36;21.60;99.90
3190;DHT22;1606;51.946;10.558;2022-07-23T00:13:04;21.70;99.90
3190;DHT22;1606;51.946;10.558;2022-07-23T00:15:32;21.50;99.90
3190;DHT22;1606;51.946;10.558;2022-07-23T00:17:59;21.50;99.90
3190;DHT22;1606;51.946;10.558;2022-07-23T00:20:27;21.40;99.90
3190;DHT22;1606;51.946;10.558;2022-07-23T00:22:55;21.40;99.90
3190;DHT22;1606;51.946;10.558;2022-07-23T00:25:23;21.40;99.90
3190;DHT22;1606;51.946;10.558;2022-07-23T00:27:56;21.30;99.90
3190;DHT22;1606;51.946;10.558;2022-07-23T00:30:24;21.00;99.90
3190;DHT22;1606;51.946;10.558;2022-07-23T00:32:53;20.60;99.90
3190;DHT22;1606;51.946;10.558;2022-07-23T00:35:24;20.40;99.90
3190;DHT22;1606;51.946;10.558;2022-07-23T00:37:52;20.60;99.90
3190;DHT22;1606;51.946;10.558;2022-07-23T00:40:20;20.70;99.90
3190;DHT22;1606;51.946;10.558;2022-07-23T00:42:48;21.00;99.90
3190;DHT22;1606;51.946;10.558;2022-07-23T00:45:17;21.10;99.90
3190;DHT22;1606;51.946;10.558;2022-07-23T00:47:46;21.10;99.90
3190;DHT22;1606;51.946;10.558;2022-07-23T00:50:14;21.00;99.90
3190;DHT22;1606;51.946;10.558;2022-07-23T00:52:43;20.80;99.90
3190;DHT22;1606;51.946;10.558;2022-07-23T00:55:11;20.90;99.90
3190;DHT22;1606;51.946;10.558;2022-07-23T00:57:40;20.80;99.90
3190;DHT22;1606;51.946;10.558;2022-07-23T01:00:10;20.60;99.90
3190;DHT22;1606;51.946;10.558;2022-07-23T01:02:40;20.60;99.90
3190;DHT22;1606;51.946;10.558;2022-07-23T01:05:09;20.80;99.90
3190;DHT22;1606;51.946;10.558;2022-07-23T01:07:37;20.70;99.90
3190;DHT22;1606;51.946;10.558;2022-07-23T01:10:06;20.80;99.90
3190;DHT22;1606;51.946;10.558;2022-07-23T01:12:55;21.10;99.90
3190;DHT22;1606;51.946;10.558;2022-07-23T01:15:26;21.30;99.90
3190;DHT22;1606;51.946;10.558;2022-07-23T01:17:55;21.30;99.90
3190;DHT22;1606;51.946;10.558;2022-07-23T01:20:23;21.30;99.90
3190;DHT22;1606;51.946;10.558;2022-07-23T01:22:53;21.20;99.90
3190;DHT22;1606;51.946;10.558;2022-07-23T01:25:21;21.20;99.90
3190;DHT22;1606;51.946;10.558;2022-07-23T01:27:50;21.20;99.90
3190;DHT22;1606;51.946;10.558;2022-07-23T01:30:18;21.20;99.90
3190;DHT22;1606;51.946;10.558;2022-07-23T01:32:46;21.40;99.90
3190;DHT22;1606;51.946;10.558;2022-07-23T01:35:14;21.30;99.90
3190;DHT22;1606;51.946;10.558;2022-07-23T01:37:42;21.30;99.90
3190;DHT22;1606;51.946;10.558;2022-07-23T01:40:11;21.20;99.90
3190;DHT22;1606;51.946;10.558;2022-07-23T01:42:39;21.20;99.90
3190;DHT22;1606;51.946;10.558;2022-07-23T01:45:08;21.20;99.90
3190;DHT22;1606;51.946;10.558;2022-07-23T01:47:36;21.40;99.90
3190;DHT22;1606;51.946;10.558;2022-07-23T01:50:05;21.60;99.90
3190;DHT22;1606;51.946;10.558;2022-07-23T01:52:33;21.50;99.90
3190;DHT22;1606;51.946;10.558;2022-07-23T01:55:01;21.60;99.90
3190;DHT22;1606;51.946;10.558;2022-07-23T01:57:30;21.60;99.90
3190;DHT22;1606;51.946;10.558;2022-07-23T01:59:58;21.40;99.90
3190;DHT22;1606;51.946;10.558;2022-07-23T02:02:26;21.20;99.90
3190;DHT22;1606;51.946;10.558;2022-07-23T02:04:54;21.30;99.90
3190;DHT22;1606;51.946;10.558;2022-07-23T02:07:22;21.20;99.90
3190;DHT22;1606;51.946;10.558;2022-07-23T02:09:50;21.10;99.90
3190;DHT22;1606;51.946;10.558;2022-07-23T02:12:18;21.10;99.90
3190;DHT22;1606;51.946;10.558;2022-07-23T02:14:47;21.20;99.90
3190;DHT22;1606;51.946;10.558;2022-07-23T02:17:15;21.10;99.90
3190;DHT22;1606;51.946;10.558;2022-07-23T02:19:42;21.20;99.90
3190;DHT22;1606;51.946;10.558;2022-07-23T02:22:10;21.40;99.90
3190;DHT22;1606;51.946;10.558;2022-07-23T02:24:38;21.30;99.90
3190;DHT22;1606;51.946;10.558;2022-07-23T02:27:06;21.10;99.90
3190;DHT22;1606;51.946;10.558;2022-07-23T02:29:34;21.20;99.90
3190;DHT22;1606;51.946;10.558;2022-07-23T02:32:03;21.10;99.90
3190;DHT22;1606;51.946;10.558;2022-07-23T02:34:33;21.00;99.90
3190;DHT22;1606;51.946;10.558;2022-07-23T02:37:01;20.90;99.90
3190;DHT22;1606;51.946;10.558;2022-07-23T02:39:29;20.80;99.90
3190;DHT22;1606;51.946;10.558;2022-07-23T02:41:56;20.90;99.90
3190;DHT22;1606;51.946;10.558;2022-07-23T02:44:24;20.90;99.90
3190;DHT22;1606;51.946;10.558;2022-07-23T02:46:52;20.90;99.90
3190;DHT22;1606;51.946;10.558;2022-07-23T02:49:22;20.90;99.90
3190;DHT22;1606;51.946;10.558;2022-07-23T02:51:49;20.90;99.90
3190;DHT22;1606;51.946;10.558;2022-07-23T02:54:18;20.90;99.90
3190;DHT22;1606;51.946;10.558;2022-07-23T02:56:46;20.80;99.90
3190;DHT22;1606;51.946;10.558;2022-07-23T02:59:14;20.90;99.90
3190;DHT22;1606;51.946;10.558;2022-07-23T03:01:42;21.00;99.90
3190;DHT22;1606;51.946;10.558;2022-07-23T03:04:10;20.70;99.90
3190;DHT22;1606;51.946;10.558;2022-07-23T03:06:39;20.60;99.90
3190;DHT22;1606;51.946;10.558;2022-07-23T03:09:07;20.50;99.90
3190;DHT22;1606;51.946;10.558;2022-07-23T03:11:34;20.60;99.90
3190;DHT22;1606;51.946;10.558;2022-07-23T03:14:02;20.60;99.90
3190;DHT22;1606;51.946;10.558;2022-07-23T03:16:30;20.70;99.90
3190;DHT22;1606;51.946;10.558;2022-07-23T03:18:58;20.50;99.90
3190;DHT22;1606;51.946;10.558;2022-07-23T03:21:26;20.40;99.90
3190;DHT22;1606;51.946;10.558;2022-07-23T03:23:55;20.20;99.90
3190;DHT22;1606;51.946;10.558;2022-07-23T03:26:23;20.10;99.90
3190;DHT22;1606;51.946;10.558;2022-07-23T03:28:51;20.50;99.90
3190;DHT22;1606;51.946;10.558;2022-07-23T03:31:19;20.60;99.90
3190;DHT22;1606;51.946;10.558;2022-07-23T03:33:47;20.70;99.90
3190;DHT22;1606;51.946;10.558;2022-07-23T03:36:15;20.60;99.90
3190;DHT22;1606;51.946;10.558;2022-07-23T03:38:43;20.40;99.90
3190;DHT22;1606;51.946;10.558;2022-07-23T03:41:12;20.50;99.90
3190;DHT22;1606;51.946;10.558;2022-07-23T03:43:40;20.60;99.90
3190;DHT22;1606;51.946;10.558;2022-07-23T03:46:08;20.60;99.90
3190;DHT22;1606;51.946;10.558;2022-07-23T03:48:36;20.70;99.90
3190;DHT22;1606;51.946;10.558;2022-07-23T03:51:04;20.70;99.90
3190;DHT22;1606;51.946;10.558;2022-07-23T03:53:32;20.90;99.90
3190;DHT22;1606;51.946;10.558;2022-07-23T03:56:00;20.90;99.90
3190;DHT22;1606;51.946;10.558;2022-07-23T03:58:29;20.80;99.90
3190;DHT22;1606;51.946;10.558;2022-07-23T04:00:57;20.70;99.90
3190;DHT22;1606;51.946;10.558;2022-07-23T04:03:24;20.60;99.90
3190;DHT22;1606;51.946;10.558;2022-07-23T04:05:52;20.40;99.90
3190;DHT22;1606;51.946;10.558;2022-07-23T04:08:20;20.30;99.90
3190;DHT22;1606;51.946;10.558;2022-07-23T04:10:48;20.20;99.90
3190;DHT22;1606;51.946;10.558;2022-07-23T04:13:16;20.00;99.90
3190;DHT22;1606;51.946;10.558;2022-07-23T04:15:45;20.10;99.90
3190;DHT22;1606;51.946;10.558;2022-07-23T04:18:13;20.20;99.90
3190;DHT22;1606;51.946;10.558;2022-07-23T04:20:43;20.40;99.90
3190;DHT22;1606;51.946;10.558;2022-07-23T04:23:11;20.40;99.90
3190;DHT22;1606;51.946;10.558;2022-07-23T04:25:39;20.40;99.90
3190;DHT22;1606;51.946;10.558;2022-07-23T04:28:07;20.40;99.90
3190;DHT22;1606;51.946;10.558;2022-07-23T04:30:35;20.40;99.90
3190;DHT22;1606;51.946;10.558;2022-07-23T04:33:04;20.40;99.90
3190;DHT22;1606;51.946;10.558;2022-07-23T04:35:33;20.50;99.90
3190;DHT22;1606;51.946;10.558;2022-07-23T04:38:02;20.40;99.90
3190;DHT22;1606;51.946;10.558;2022-07-23T04:40:30;20.40;99.90
3190;DHT22;1606;51.946;10.558;2022-07-23T04:42:58;20.40;99.90
3190;DHT22;1606;51.946;10.558;2022-07-23T04:45:26;20.50;99.90
3190;DHT22;1606;51.946;10.558;2022-07-23T04:47:55;20.50;99.90
3190;DHT22;1606;51.946;10.558;2022-07-23T04:50:25;20.50;99.90
3190;DHT22;1606;51.946;10.558;2022-07-23T04:52:53;20.50;99.90
3190;DHT22;1606;51.946;10.558;2022-07-23T04:55:21;20.50;99.90
3190;DHT22;1606;51.946;10.558;2022-07-23T04:57:48;20.60;99.90
3190;DHT22;1606;51.946;10.558;2022-07-23T05:00:16;20.70;99.90
3190;DHT22;1606;51.946;10.558;2022-07-23T05:02:44;20.80;99.90
3190;DHT22;1606;51.946;10.558;2022-07-23T05:05:12;20.50;99.90
3190;DHT22;1606;51.946;10.558;2022-07-23T05:07:41;20.50;99.90
3190;DHT22;1606;51.946;10.558;2022-07-23T05:10:09;20.80;99.90
3190;DHT22;1606;51.946;10.558;2022-07-23T05:12:37;20.90;99.90
3190;DHT22;1606;51.946;10.558;2022-07-23T05:15:05;20.80;99.90
3190;DHT22;1606;51.946;10.558;2022-07-23T05:17:33;20.70;99.90
3190;DHT22;1606;51.946;10.558;2022-07-23T05:20:01;20.90;99.90
3190;DHT22;1606;51.946;10.558;2022-07-23T05:22:29;21.00;99.90
3190;DHT22;1606;51.946;10.558;2022-07-23T05:24:58;21.00;99.90
3190;DHT22;1606;51.946;10.558;2022-07-23T05:27:26;21.00;99.90
3190;DHT22;1606;51.946;10.558;2022-07-23T05:29:54;21.10;99.90
3190;DHT22;1606;51.946;10.558;2022-07-23T05:32:22;21.10;99.90
3190;DHT22;1606;51.946;10.558;2022-07-23T05:34:50;21.20;99.90
3190;DHT22;1606;51.946;10.558;2022-07-23T05:37:18;21.00;99.90
3190;DHT22;1606;51.946;10.558;2022-07-23T05:39:45;21.00;99.90
3190;DHT22;1606;51.946;10.558;2022-07-23T05:42:14;20.60;99.90
3190;DHT22;1606;51.946;10.558;2022-07-23T05:44:42;20.50;99.90
3190;DHT22;1606;51.946;10.558;2022-07-23T05:47:10;20.50;99.90
3190;DHT22;1606;51.946;10.558;2022-07-23T05:49:38;20.30;99.90
3190;DHT22;1606;51.946;10.558;2022-07-23T05:52:06;20.30;99.90
3190;DHT22;1606;51.946;10.558;2022-07-23T05:54:34;20.30;99.90
3190;DHT22;1606;51.946;10.558;2022-07-23T05:57:03;20.30;99.90
3190;DHT22;1606;51.946;10.558;2022-07-23T05:59:32;20.40;99.90
3190;DHT22;1606;51.946;10.558;2022-07-23T06:02:00;20.50;99.90
3190;DHT22;1606;51.946;10.558;2022-07-23T06:04:28;20.20;99.90
3190;DHT22;1606;51.946;10.558;2022-07-23T06:06:56;20.10;99.90
3190;DHT22;1606;51.946;10.558;2022-07-23T06:09:23;20.10;99.90
3190;DHT22;1606;51.946;10.558;2022-07-23T06:11:51;20.30;99.90
3190;DHT22;1606;51.946;10.558;2022-07-23T06:14:19;20.40;99.90
3190;DHT22;1606;51.946;10.558;2022-07-23T06:16:48;20.50;99.90
3190;DHT22;1606;51.946;10.558;2022-07-23T06:19:16;20.50;99.90
3190;DHT22;1606;51.946;10.558;2022-07-23T06:21:43;20.60;99.90
3190;DHT22;1606;51.946;10.558;2022-07-23T06:24:13;20.60;99.90
3190;DHT22;1606;51.946;10.558;2022-07-23T06:26:41;20.40;99.90
3190;DHT22;1606;51.946;10.558;2022-07-23T06:29:09;20.50;99.90
3190;DHT22;1606;51.946;10.558;2022-07-23T06:31:37;20.30;99.90
3190;DHT22;1606;51.946;10.558;2022-07-23T06:34:06;20.30;99.90
3190;DHT22;1606;51.946;10.558;2022-07-23T06:36:34;20.30;99.90
3190;DHT22;1606;51.946;10.558;2022-07-23T06:39:02;20.20;99.90
3190;DHT22;1606;51.946;10.558;2022-07-23T06:41:32;20.20;99.90
3190;DHT22;1606;51.946;10.558;2022-07-23T06:44:00;20.30;99.90
3190;DHT22;1606;51.946;10.558;2022-07-23T06:46:28;20.30;99.90
3190;DHT22;1606;51.946;10.558;2022-07-23T06:48:55;20.30;99.90
3190;DHT22;1606;51.946;10.558;2022-07-23T06:51:25;20.30;99.90
3190;DHT22;1606;51.946;10.558;2022-07-23T06:53:53;20.10;99.90
3190;DHT22;1606;51.946;10.558;2022-07-23T06:56:20;20.20;99.90
3190;DHT22;1606;51.946;10.558;2022-07-23T06:58:48;20.20;99.90
3190;DHT22;1606;51.946;10.558;2022-07-23T07:01:16;20.20;99.90
3190;DHT22;1606;51.946;10.558;2022-07-23T07:03:44;20.40;99.90
3190;DHT22;1606;51.946;10.558;2022-07-23T07:06:13;20.50;99.90
3190;DHT22;1606;51.946;10.558;2022-07-23T07:08:42;20.70;99.90
3190;DHT22;1606;51.946;10.558;2022-07-23T07:11:10;20.80;99.90
3190;DHT22;1606;51.946;10.558;2022-07-23T07:13:38;21.00;99.90
3190;DHT22;1606;51.946;10.558;2022-07-23T07:16:06;21.00;99.90
3190;DHT22;1606;51.946;10.558;2022-07-23T07:18:34;21.20;99.90
3190;DHT22;1606;51.946;10.558;2022-07-23T07:21:02;21.30;99.90
3190;DHT22;1606;51.946;10.558;2022-07-23T07:23:30;21.30;99.90
3190;DHT22;1606;51.946;10.558;2022-07-23T07:26:00;21.10;99.90
3190;DHT22;1606;51.946;10.558;2022-07-23T07:28:28;21.20;99.90
3190;DHT22;1606;51.946;10.558;2022-07-23T07:30:56;21.50;99.90
3190;DHT22;1606;51.946;10.558;2022-07-23T07:33:24;21.50;99.90
3190;DHT22;1606;51.946;10.558;2022-07-23T07:35:52;21.40;99.90
3190;DHT22;1606;51.946;10.558;2022-07-23T07:38:19;21.60;99.90
3190;DHT22;1606;51.946;10.558;2022-07-23T07:40:47;21.70;99.90
3190;DHT22;1606;51.946;10.558;2022-07-23T07:43:16;21.80;99.90
3190;DHT22;1606;51.946;10.558;2022-07-23T07:45:44;21.70;99.90
3190;DHT22;1606;51.946;10.558;2022-07-23T07:48:12;21.70;99.90
3190;DHT22;1606;51.946;10.558;2022-07-23T07:50:40;21.90;99.90
3190;DHT22;1606;51.946;10.558;2022-07-23T07:53:08;22.10;99.90
3190;DHT22;1606;51.946;10.558;2022-07-23T07:55:36;22.20;99.90
3190;DHT22;1606;51.946;10.558;2022-07-23T07:58:04;22.20;99.90
3190;DHT22;1606;51.946;10.558;2022-07-23T08:00:33;22.20;99.90
3190;DHT22;1606;51.946;10.558;2022-07-23T08:03:01;22.30;99.90
3190;DHT22;1606;51.946;10.558;2022-07-23T08:05:30;22.50;99.90
3190;DHT22;1606;51.946;10.558;2022-07-23T08:07:59;22.60;99.90
3190;DHT22;1606;51.946;10.558;2022-07-23T08:10:28;22.90;99.90
3190;DHT22;1606;51.946;10.558;2022-07-23T08:12:58;22.90;99.90
3190;DHT22;1606;51.946;10.558;2022-07-23T08:15:29;22.80;99.90
3190;DHT22;1606;51.946;10.558;2022-07-23T08:17:59;22.70;99.90
3190;DHT22;1606;51.946;10.558;2022-07-23T08:20:27;22.80;99.90
3190;DHT22;1606;51.946;10.558;2022-07-23T08:22:56;23.10;99.20
3190;DHT22;1606;51.946;10.558;2022-07-23T08:25:27;23.20;97.80
3190;DHT22;1606;51.946;10.558;2022-07-23T08:27:55;23.00;98.70
3190;DHT22;1606;51.946;10.558;2022-07-23T08:30:23;23.00;98.70
3190;DHT22;1606;51.946;10.558;2022-07-23T08:32:52;23.10;98.70
3190;DHT22;1606;51.946;10.558;2022-07-23T08:35:24;23.10;97.60
3190;DHT22;1606;51.946;10.558;2022-07-23T08:37:53;23.00;97.40
3190;DHT22;1606;51.946;10.558;2022-07-23T08:40:21;23.20;98.10
3190;DHT22;1606;51.946;10.558;2022-07-23T08:42:50;23.40;96.80
3190;DHT22;1606;51.946;10.558;2022-07-23T08:45:19;23.40;95.50
3190;DHT22;1606;51.946;10.558;2022-07-23T08:47:49;23.60;96.40
3190;DHT22;1606;51.946;10.558;2022-07-23T08:50:19;23.60;96.10
3190;DHT22;1606;51.946;10.558;2022-07-23T08:52:50;23.60;95.60
3190;DHT22;1606;51.946;10.558;2022-07-23T08:55:19;23.50;95.40
3190;DHT22;1606;51.946;10.558;2022-07-23T08:57:48;23.60;95.30
3190;DHT22;1606;51.946;10.558;2022-07-23T09:00:17;23.80;95.40
3190;DHT22;1606;51.946;10.558;2022-07-23T09:02:46;23.90;94.80
3190;DHT22;1606;51.946;10.558;2022-07-23T09:05:15;24.20;94.60
3190;DHT22;1606;51.946;10.558;2022-07-23T09:08:05;24.20;94.20
3190;DHT22;1606;51.946;10.558;2022-07-23T09:10:46;24.30;94.40
3190;DHT22;1606;51.946;10.558;2022-07-23T09:13:29;24.40;93.30
3190;DHT22;1606;51.946;10.558;2022-07-23T09:15:59;24.60;93.50
3190;DHT22;1606;51.946;10.558;2022-07-23T09:18:36;24.80;92.70
3190;DHT22;1606;51.946;10.558;2022-07-23T09:21:22;24.70;92.60
3190;DHT22;1606;51.946;10.558;2022-07-23T09:23:55;24.30;93.40
3190;DHT22;1606;51.946;10.558;2022-07-23T09:26:25;24.30;93.50
3190;DHT22;1606;51.946;10.558;2022-07-23T09:28:59;24.20;93.60
3190;DHT22;1606;51.946;10.558;2022-07-23T09:31:32;24.30;93.90
3190;DHT22;1606;51.946;10.558;2022-07-23T09:34:08;24.00;93.80
3190;DHT22;1606;51.946;10.558;2022-07-23T09:36:37;24.40;94.00
3190;DHT22;1606;51.946;10.558;2022-07-23T09:39:07;24.60;93.20
3190;DHT22;1606;51.946;10.558;2022-07-23T09:41:39;24.80;92.60
3190;DHT22;1606;51.946;10.558;2022-07-23T09:44:09;25.00;92.00
3190;DHT22;1606;51.946;10.558;2022-07-23T09:46:38;24.60;92.30
3190;DHT22;1606;51.946;10.558;2022-07-23T09:49:12;24.60;92.80
3190;DHT22;1606;51.946;10.558;2022-07-23T09:51:53;24.40;92.50
3190;DHT22;1606;51.946;10.558;2022-07-23T09:54:26;24.40;92.60
3190;DHT22;1606;51.946;10.558;2022-07-23T09:56:57;24.50;93.00
3190;DHT22;1606;51.946;10.558;2022-07-23T09:59:26;24.50;92.80
3190;DHT22;1606;51.946;10.558;2022-07-23T10:01:56;24.50;92.30
3190;DHT22;1606;51.946;10.558;2022-07-23T10:04:27;24.70;92.70
3190;DHT22;1606;51.946;10.558;2022-07-23T10:06:57;24.30;91.40
3190;DHT22;1606;51.946;10.558;2022-07-23T10:09:28;24.50;92.00
3190;DHT22;1606;51.946;10.558;2022-07-23T10:11:57;24.60;91.60
3190;DHT22;1606;51.946;10.558;2022-07-23T10:14:39;24.50;91.20
3190;DHT22;1606;51.946;10.558;2022-07-23T10:17:07;24.90;90.90
3190;DHT22;1606;51.946;10.558;2022-07-23T10:19:35;25.30;90.10
3190;DHT22;1606;51.946;10.558;2022-07-23T10:22:06;25.70;86.60
3190;DHT22;1606;51.946;10.558;2022-07-23T10:24:49;25.50;86.70
3190;DHT22;1606;51.946;10.558;2022-07-23T10:30:33;25.20;87.80
3190;DHT22;1606;51.946;10.558;2022-07-23T10:33:15;25.40;88.20
3190;DHT22;1606;51.946;10.558;2022-07-23T10:35:50;25.50;83.70
3190;DHT22;1606;51.946;10.558;2022-07-23T10:38:24;25.70;85.00
3190;DHT22;1606;51.946;10.558;2022-07-23T10:40:59;26.00;83.90
3190;DHT22;1606;51.946;10.558;2022-07-23T10:43:28;26.10;80.80
3190;DHT22;1606;51.946;10.558;2022-07-23T10:46:23;25.80;81.90
3190;DHT22;1606;51.946;10.558;2022-07-23T10:49:20;26.10;81.30
3190;DHT22;1606;51.946;10.558;2022-07-23T10:52:23;26.40;80.20
3190;DHT22;1606;51.946;10.558;2022-07-23T10:54:52;26.20;80.30
3190;DHT22;1606;51.946;10.558;2022-07-23T10:57:23;25.90;79.90
3190;DHT22;1606;51.946;10.558;2022-07-23T11:00:14;25.90;80.60
3190;DHT22;1606;51.946;10.558;2022-07-23T11:02:45;26.00;79.60
3190;DHT22;1606;51.946;10.558;2022-07-23T11:05:14;26.10;79.80
3190;DHT22;1606;51.946;10.558;2022-07-23T11:08:14;26.20;79.00
3190;DHT22;1606;51.946;10.558;2022-07-23T11:10:46;26.20;77.10
3190;DHT22;1606;51.946;10.558;2022-07-23T11:13:41;26.40;78.80
3190;DHT22;1606;51.946;10.558;2022-07-23T11:16:18;26.80;78.90
3190;DHT22;1606;51.946;10.558;2022-07-23T11:18:56;27.10;77.70
3190;DHT22;1606;51.946;10.558;2022-07-23T11:21:48;27.10;75.90
3190;DHT22;1606;51.946;10.558;2022-07-23T11:24:23;27.40;74.30
3190;DHT22;1606;51.946;10.558;2022-07-23T11:27:09;27.40;73.80
3190;DHT22;1606;51.946;10.558;2022-07-23T11:29:46;27.20;75.50
3190;DHT22;1606;51.946;10.558;2022-07-23T11:32:38;27.50;75.60
3190;DHT22;1606;51.946;10.558;2022-07-23T11:35:20;27.60;73.80
3190;DHT22;1606;51.946;10.558;2022-07-23T11:37:48;27.30;72.00
3190;DHT22;1606;51.946;10.558;2022-07-23T11:40:20;27.20;71.80
3190;DHT22;1606;51.946;10.558;2022-07-23T11:42:53;27.50;72.70
3190;DHT22;1606;51.946;10.558;2022-07-23T11:45:25;27.60;70.80
3190;DHT22;1606;51.946;10.558;2022-07-23T11:47:54;27.10;71.40
3190;DHT22;1606;51.946;10.558;2022-07-23T11:50:23;27.30;70.60
3190;DHT22;1606;51.946;10.558;2022-07-23T11:52:52;27.40;70.00
3190;DHT22;1606;51.946;10.558;2022-07-23T11:55:20;27.60;70.30
3190;DHT22;1606;51.946;10.558;2022-07-23T11:57:51;27.80;70.00
3190;DHT22;1606;51.946;10.558;2022-07-23T12:00:21;27.90;69.90
3190;DHT22;1606;51.946;10.558;2022-07-23T12:02:52;27.90;69.80
3190;DHT22;1606;51.946;10.558;2022-07-23T12:05:22;27.80;68.50
3190;DHT22;1606;51.946;10.558;2022-07-23T12:07:52;27.30;67.80
3190;DHT22;1606;51.946;10.558;2022-07-23T12:10:21;27.20;69.20
3190;DHT22;1606;51.946;10.558;2022-07-23T12:12:51;27.30;69.60
3190;DHT22;1606;51.946;10.558;2022-07-23T12:15:21;27.60;68.30
3190;DHT22;1606;51.946;10.558;2022-07-23T12:17:52;27.90;68.70
3190;DHT22;1606;51.946;10.558;2022-07-23T12:20:23;27.90;69.10
3190;DHT22;1606;51.946;10.558;2022-07-23T12:22:53;28.10;68.40
3190;DHT22;1606;51.946;10.558;2022-07-23T12:25:24;27.90;67.70
3190;DHT22;1606;51.946;10.558;2022-07-23T12:28:01;27.90;67.60
3190;DHT22;1606;51.946;10.558;2022-07-23T12:30:32;27.80;67.90
3190;DHT22;1606;51.946;10.558;2022-07-23T12:33:02;27.90;67.50
3190;DHT22;1606;51.946;10.558;2022-07-23T12:35:33;27.90;67.80
3190;DHT22;1606;51.946;10.558;2022-07-23T12:38:03;28.20;67.20
3190;DHT22;1606;51.946;10.558;2022-07-23T12:40:33;28.40;66.40
3190;DHT22;1606;51.946;10.558;2022-07-23T12:43:04;28.20;66.20
3190;DHT22;1606;51.946;10.558;2022-07-23T12:45:48;28.40;66.00
3190;DHT22;1606;51.946;10.558;2022-07-23T12:48:21;28.50;66.30
3190;DHT22;1606;51.946;10.558;2022-07-23T12:50:59;28.30;64.80
3190;DHT22;1606;51.946;10.558;2022-07-23T12:53:30;28.40;64.10
3190;DHT22;1606;51.946;10.558;2022-07-23T12:56:00;28.20;63.70
3190;DHT22;1606;51.946;10.558;2022-07-23T12:58:43;28.00;65.90
3190;DHT22;1606;51.946;10.558;2022-07-23T13:01:24;28.30;64.80
3190;DHT22;1606;51.946;10.558;2022-07-23T13:04:02;28.30;63.60
3190;DHT22;1606;51.946;10.558;2022-07-23T13:06:39;28.10;63.20
3190;DHT22;1606;51.946;10.558;2022-07-23T13:09:08;28.30;63.40
3190;DHT22;1606;51.946;10.558;2022-07-23T13:11:37;28.00;62.50
3190;DHT22;1606;51.946;10.558;2022-07-23T13:14:06;27.90;62.60
3190;DHT22;1606;51.946;10.558;2022-07-23T13:16:35;27.90;63.40
3190;DHT22;1606;51.946;10.558;2022-07-23T13:19:05;28.20;62.00
3190;DHT22;1606;51.946;10.558;2022-07-23T13:21:38;28.20;62.60
3190;DHT22;1606;51.946;10.558;2022-07-23T13:24:08;28.50;62.50
3190;DHT22;1606;51.946;10.558;2022-07-23T13:26:39;28.40;62.10
3190;DHT22;1606;51.946;10.558;2022-07-23T13:29:07;28.40;61.60
3190;DHT22;1606;51.946;10.558;2022-07-23T13:31:37;28.60;61.00
3190;DHT22;1606;51.946;10.558;2022-07-23T13:34:06;28.80;61.30
3190;DHT22;1606;51.946;10.558;2022-07-23T13:36:34;28.40;60.40
3190;DHT22;1606;51.946;10.558;2022-07-23T13:39:03;28.10;61.50
3190;DHT22;1606;51.946;10.558;2022-07-23T13:41:35;28.10;61.90
3190;DHT22;1606;51.946;10.558;2022-07-23T13:44:03;28.10;62.80
3190;DHT22;1606;51.946;10.558;2022-07-23T13:46:32;27.90;62.10
3190;DHT22;1606;51.946;10.558;2022-07-23T13:49:01;27.90;62.60
3190;DHT22;1606;51.946;10.558;2022-07-23T13:51:33;28.00;62.90
3190;DHT22;1606;51.946;10.558;2022-07-23T13:54:01;28.00;62.50
3190;DHT22;1606;51.946;10.558;2022-07-23T13:56:29;28.20;63.50
3190;DHT22;1606;51.946;10.558;2022-07-23T13:58:57;28.20;62.30
3190;DHT22;1606;51.946;10.558;2022-07-23T14:01:25;28.10;61.60
3190;DHT22;1606;51.946;10.558;2022-07-23T14:04:04;28.00;62.70
3190;DHT22;1606;51.946;10.558;2022-07-23T14:06:34;28.00;63.30
3190;DHT22;1606;51.946;10.558;2022-07-23T14:09:02;28.20;60.90
3190;DHT22;1606;51.946;10.558;2022-07-23T14:11:30;28.10;60.10
3190;DHT22;1606;51.946;10.558;2022-07-23T14:13:58;27.90;61.80
3190;DHT22;1606;51.946;10.558;2022-07-23T14:16:27;27.70;61.00
3190;DHT22;1606;51.946;10.558;2022-07-23T14:18:55;27.80;61.20
3190;DHT22;1606;51.946;10.558;2022-07-23T14:21:23;27.80;60.70
3190;DHT22;1606;51.946;10.558;2022-07-23T14:23:53;27.90;59.20
3190;DHT22;1606;51.946;10.558;2022-07-23T14:26:21;27.60;60.50
3190;DHT22;1606;51.946;10.558;2022-07-23T14:28:49;27.90;60.40
3190;DHT22;1606;51.946;10.558;2022-07-23T14:31:17;28.10;60.50
3190;DHT22;1606;51.946;10.558;2022-07-23T14:33:47;28.40;59.80
3190;DHT22;1606;51.946;10.558;2022-07-23T14:36:15;28.50;59.50
3190;DHT22;1606;51.946;10.558;2022-07-23T14:38:43;28.50;59.80
3190;DHT22;1606;51.946;10.558;2022-07-23T14:41:13;28.30;60.00
3190;DHT22;1606;51.946;10.558;2022-07-23T14:44:01;28.30;60.60
3190;DHT22;1606;51.946;10.558;2022-07-23T14:46:29;28.50;60.10
3190;DHT22;1606;51.946;10.558;2022-07-23T14:48:57;28.60;60.30
3190;DHT22;1606;51.946;10.558;2022-07-23T14:51:25;28.40;59.60
3190;DHT22;1606;51.946;10.558;2022-07-23T14:53:54;28.30;60.20
3190;DHT22;1606;51.946;10.558;2022-07-23T14:56:23;28.40;59.60
3190;DHT22;1606;51.946;10.558;2022-07-23T14:58:51;28.50;60.80
3190;DHT22;1606;51.946;10.558;2022-07-23T15:01:22;28.50;59.50
3190;DHT22;1606;51.946;10.558;2022-07-23T15:03:52;28.10;59.60
3190;DHT22;1606;51.946;10.558;2022-07-23T15:06:25;27.90;61.00
3190;DHT22;1606;51.946;10.558;2022-07-23T15:08:53;27.90;60.60
3190;DHT22;1606;51.946;10.558;2022-07-23T15:11:21;28.20;60.80
3190;DHT22;1606;51.946;10.558;2022-07-23T15:13:52;28.40;59.90
3190;DHT22;1606;51.946;10.558;2022-07-23T15:16:20;28.40;60.00
3190;DHT22;1606;51.946;10.558;2022-07-23T15:18:50;28.40;59.60
3190;DHT22;1606;51.946;10.558;2022-07-23T15:21:18;28.40;58.90
3190;DHT22;1606;51.946;10.558;2022-07-23T15:23:46;27.60;57.90
3190;DHT22;1606;51.946;10.558;2022-07-23T15:26:15;27.90;58.70
3190;DHT22;1606;51.946;10.558;2022-07-23T15:28:45;27.90;59.40
3190;DHT22;1606;51.946;10.558;2022-07-23T15:31:14;27.90;60.40
3190;DHT22;1606;51.946;10.558;2022-07-23T15:33:42;27.80;61.00
3190;DHT22;1606;51.946;10.558;2022-07-23T15:36:09;27.70;61.60
3190;DHT22;1606;51.946;10.558;2022-07-23T15:38:38;27.90;61.20
3190;DHT22;1606;51.946;10.558;2022-07-23T15:41:06;28.00;59.60
3190;DHT22;1606;51.946;10.558;2022-07-23T15:43:34;27.70;60.30
3190;DHT22;1606;51.946;10.558;2022-07-23T15:46:04;27.10;61.90
3190;DHT22;1606;51.946;10.558;2022-07-23T15:48:36;27.20;62.40
3190;DHT22;1606;51.946;10.558;2022-07-23T15:51:05;27.20;61.40
3190;DHT22;1606;51.946;10.558;2022-07-23T15:53:33;26.90;62.40
3190;DHT22;1606;51.946;10.558;2022-07-23T15:56:04;27.00;63.10
3190;DHT22;1606;51.946;10.558;2022-07-23T15:58:41;27.00;62.70
3190;DHT22;1606;51.946;10.558;2022-07-23T16:01:10;27.00;63.00
3190;DHT22;1606;51.946;10.558;2022-07-23T16:03:41;26.80;62.80
3190;DHT22;1606;51.946;10.558;2022-07-23T16:06:11;26.80;63.60